Time;durP1;ratioP1;P1;durP2;ratioP2;P2;SDS_P1;SDS_P2;PMS_P1;PMS_P2;Temp;Humidity;BMP_temperature;BMP_pressure;BME280_temperature;BME280_humidity;BME280_pressure;Samples;Min_cycle;Max_cycle;Signal;HPM_P1;HPM_P2
2022/01/29 00:00:54;;;;;;;32.43;21.40;;;;;;;;;;4987572;28;20050;-60
2022/01/29 00:03:22;;;;;;;29.97;21.40;;;;;;;;;;5009470;28;20104;-60
2022/01/29 00:05:48;;;;;;;35.27;21.20;;;;;;;;;;5010057;28;20502;-61
2022/01/29 00:08:14;;;;;;;32.23;21.07;;;;;;;;;;5001616;28;20429;-60
2022/01/29 00:10:42;;;;;;;34.80;20.30;;;;;;;;;;4992466;28;20121;-61
2022/01/29 00:13:08;;;;;;;33.30;19.27;;;;;;;;;;4997499;28;20042;-60
2022/01/29 00:15:34;;;;;;;31.73;20.60;;;;;;;;;;5003298;28;20522;-60
2022/01/29 00:18:00;;;;;;;30.47;18.67;;;;;;;;;;4994538;28;20039;-59
2022/01/29 00:20:26;;;;;;;28.87;18.97;;;;;;;;;;4992880;28;20500;-60
2022/01/29 00:22:54;;;;;;;30.27;19.63;;;;;;;;;;4999253;28;20042;-60
2022/01/29 00:25:20;;;;;;;28.93;18.63;;;;;;;;;;4995244;28;20050;-61
2022/01/29 00:27:46;;;;;;;30.80;18.57;;;;;;;;;;5009474;28;20042;-60
2022/01/29 00:30:17;;;;;;;29.27;19.67;;;;;;;;;;5010146;28;20395;-60
2022/01/29 00:32:43;;;;;;;30.90;20.37;;;;;;;;;;5011724;28;20040;-60
2022/01/29 00:35:09;;;;;;;29.63;18.70;;;;;;;;;;5036129;28;20046;-58
2022/01/29 00:37:36;;;;;;;30.30;19.07;;;;;;;;;;5005038;28;20125;-60
2022/01/29 00:40:02;;;;;;;33.40;19.83;;;;;;;;;;5009622;28;20065;-60
2022/01/29 00:42:28;;;;;;;32.33;19.27;;;;;;;;;;5009630;28;20038;-59
2022/01/29 00:44:54;;;;;;;34.53;19.77;;;;;;;;;;4996391;28;20046;-60
2022/01/29 00:47:20;;;;;;;30.57;19.20;;;;;;;;;;4991006;28;20404;-59
2022/01/29 00:49:46;;;;;;;35.63;18.97;;;;;;;;;;4991080;28;20026;-59
2022/01/29 00:52:12;;;;;;;31.67;19.93;;;;;;;;;;4980524;28;20042;-59
2022/01/29 00:54:38;;;;;;;28.73;18.43;;;;;;;;;;5006943;28;20042;-59
2022/01/29 00:57:05;;;;;;;33.90;18.93;;;;;;;;;;5009409;28;20081;-59
2022/01/29 00:59:32;;;;;;;27.50;17.70;;;;;;;;;;5000868;28;20041;-59
2022/01/29 01:01:58;;;;;;;32.07;18.80;;;;;;;;;;4990050;28;20034;-59
2022/01/29 01:04:24;;;;;;;27.90;17.80;;;;;;;;;;4994835;28;20133;-58
2022/01/29 01:06:50;;;;;;;29.20;17.33;;;;;;;;;;4996961;28;20042;-60
2022/01/29 01:09:16;;;;;;;31.03;19.10;;;;;;;;;;4993690;28;20053;-59
2022/01/29 01:11:42;;;;;;;30.73;19.17;;;;;;;;;;5006029;28;20050;-58
2022/01/29 01:14:08;;;;;;;34.23;19.53;;;;;;;;;;5002478;28;20060;-59
2022/01/29 01:16:35;;;;;;;27.60;17.87;;;;;;;;;;5007778;28;20034;-59
2022/01/29 01:19:01;;;;;;;31.57;18.93;;;;;;;;;;4992094;28;20050;-59
2022/01/29 01:21:27;;;;;;;32.63;18.60;;;;;;;;;;4988495;28;20054;-58
2022/01/29 01:23:53;;;;;;;30.97;18.70;;;;;;;;;;4995230;28;20130;-59
2022/01/29 01:26:19;;;;;;;32.37;20.27;;;;;;;;;;4996501;28;20117;-59
2022/01/29 01:28:45;;;;;;;31.17;18.87;;;;;;;;;;4989544;28;20077;-58
2022/01/29 01:31:11;;;;;;;30.80;20.07;;;;;;;;;;4997235;28;20070;-59
2022/01/29 01:33:37;;;;;;;30.13;18.23;;;;;;;;;;4989637;28;20046;-59
2022/01/29 01:36:06;;;;;;;29.87;18.80;;;;;;;;;;4986852;28;20034;-59
2022/01/29 01:38:54;;;;;;;32.33;18.93;;;;;;;;;;4991874;28;20038;-59
2022/01/29 01:41:24;;;;;;;30.80;18.83;;;;;;;;;;5002830;28;20042;-59
2022/01/29 01:43:51;;;;;;;32.50;19.03;;;;;;;;;;4977023;28;20047;-58
2022/01/29 01:46:17;;;;;;;35.60;19.03;;;;;;;;;;4989857;28;20038;-59
2022/01/29 01:48:43;;;;;;;27.33;18.90;;;;;;;;;;4992966;28;20097;-59
2022/01/29 01:51:09;;;;;;;35.03;21.37;;;;;;;;;;4990416;28;20492;-59
2022/01/29 01:53:35;;;;;;;29.83;19.03;;;;;;;;;;4999646;28;20053;-59
2022/01/29 01:56:01;;;;;;;31.40;19.23;;;;;;;;;;4999658;28;20052;-58
2022/01/29 01:58:27;;;;;;;28.87;18.37;;;;;;;;;;4977056;28;20037;-59
2022/01/29 02:00:53;;;;;;;32.37;19.30;;;;;;;;;;4994468;28;20488;-57
2022/01/29 02:03:19;;;;;;;31.33;18.93;;;;;;;;;;5002370;28;20085;-58
2022/01/29 02:05:45;;;;;;;31.90;18.70;;;;;;;;;;4986411;28;20042;-58
2022/01/29 02:08:14;;;;;;;31.60;18.70;;;;;;;;;;5002436;28;20784;-59
2022/01/29 02:10:40;;;;;;;30.33;19.07;;;;;;;;;;5008791;28;20065;-59
2022/01/29 02:13:06;;;;;;;32.90;19.23;;;;;;;;;;4999757;28;20041;-59
2022/01/29 02:15:32;;;;;;;30.97;19.87;;;;;;;;;;5010374;28;20057;-59
2022/01/29 02:17:59;;;;;;;31.77;19.00;;;;;;;;;;5010155;28;20038;-59
2022/01/29 02:20:26;;;;;;;31.20;18.90;;;;;;;;;;5008713;28;20039;-59
2022/01/29 02:22:52;;;;;;;31.33;18.70;;;;;;;;;;5008792;28;20511;-58
2022/01/29 02:25:29;;;;;;;34.90;20.00;;;;;;;;;;5008528;28;20041;-60
2022/01/29 02:27:55;;;;;;;34.00;20.47;;;;;;;;;;5006693;28;20387;-59
2022/01/29 02:30:21;;;;;;;36.63;20.73;;;;;;;;;;5007034;28;20117;-58
2022/01/29 02:32:47;;;;;;;33.17;20.40;;;;;;;;;;5005111;28;20555;-59
2022/01/29 02:35:13;;;;;;;41.80;21.37;;;;;;;;;;5006376;28;20041;-60
2022/01/29 02:37:39;;;;;;;37.10;21.63;;;;;;;;;;4995750;28;20377;-60
2022/01/29 02:40:06;;;;;;;36.33;22.37;;;;;;;;;;5007749;28;20394;-59
2022/01/29 02:42:32;;;;;;;44.17;22.73;;;;;;;;;;5008801;28;20061;-60
2022/01/29 02:44:58;;;;;;;37.80;21.93;;;;;;;;;;5008506;28;20040;-59
2022/01/29 02:47:31;;;;;;;42.10;23.73;;;;;;;;;;5040151;28;20062;-59
2022/01/29 02:49:57;;;;;;;41.07;23.67;;;;;;;;;;5002884;28;20045;-59
2022/01/29 02:52:23;;;;;;;42.20;24.60;;;;;;;;;;4998656;28;20030;-59
2022/01/29 02:54:49;;;;;;;42.57;23.87;;;;;;;;;;5032949;28;20103;-60
2022/01/29 02:57:15;;;;;;;40.30;25.40;;;;;;;;;;5006124;28;20045;-60
2022/01/29 02:59:41;;;;;;;52.73;29.13;;;;;;;;;;5006332;28;20034;-60
2022/01/29 03:02:07;;;;;;;55.60;31.27;;;;;;;;;;5007627;28;20092;-59
2022/01/29 03:04:33;;;;;;;53.60;31.67;;;;;;;;;;5008356;28;20403;-59
2022/01/29 03:06:59;;;;;;;53.03;31.43;;;;;;;;;;5009043;28;20033;-60
2022/01/29 03:09:25;;;;;;;60.83;33.17;;;;;;;;;;5023051;28;20034;-60
2022/01/29 03:11:51;;;;;;;55.97;31.93;;;;;;;;;;5008023;28;20030;-60
2022/01/29 03:14:17;;;;;;;62.63;32.47;;;;;;;;;;5007195;28;20048;-60
2022/01/29 03:16:43;;;;;;;59.93;34.47;;;;;;;;;;5006345;28;20117;-60
2022/01/29 03:19:09;;;;;;;60.40;34.70;;;;;;;;;;5007286;28;20046;-59
2022/01/29 03:21:35;;;;;;;57.13;35.03;;;;;;;;;;5002963;28;20522;-60
2022/01/29 03:24:11;;;;;;;61.90;35.63;;;;;;;;;;4987378;28;20180;-60
2022/01/29 03:26:37;;;;;;;70.00;35.40;;;;;;;;;;4986594;28;20449;-60
2022/01/29 03:29:03;;;;;;;62.00;35.03;;;;;;;;;;4986330;28;20176;-59
2022/01/29 03:31:29;;;;;;;60.93;34.33;;;;;;;;;;4996661;28;20445;-60
2022/01/29 03:33:55;;;;;;;63.63;33.27;;;;;;;;;;4996530;28;20054;-59
2022/01/29 03:36:21;;;;;;;57.70;30.73;;;;;;;;;;5006037;28;20553;-60
2022/01/29 03:38:47;;;;;;;54.57;29.83;;;;;;;;;;5008160;28;20034;-60
2022/01/29 03:41:14;;;;;;;52.17;29.47;;;;;;;;;;5006854;28;20091;-60
2022/01/29 03:43:45;;;;;;;51.53;28.37;;;;;;;;;;5009078;28;20034;-60
2022/01/29 03:46:11;;;;;;;47.30;26.63;;;;;;;;;;5003723;28;20050;-59
2022/01/29 03:48:37;;;;;;;50.63;26.87;;;;;;;;;;4995764;28;20092;-59
2022/01/29 03:51:03;;;;;;;55.37;29.80;;;;;;;;;;4998012;28;21340;-59
2022/01/29 03:53:29;;;;;;;45.57;27.17;;;;;;;;;;5007397;28;20042;-59
2022/01/29 03:55:55;;;;;;;48.87;26.80;;;;;;;;;;5006157;28;20185;-59
2022/01/29 03:58:21;;;;;;;45.97;25.93;;;;;;;;;;5005646;28;20133;-60
2022/01/29 04:00:47;;;;;;;41.70;24.27;;;;;;;;;;5004163;28;20049;-59
2022/01/29 04:03:13;;;;;;;44.93;25.43;;;;;;;;;;5008373;28;20042;-60
2022/01/29 04:05:39;;;;;;;44.03;24.23;;;;;;;;;;5005901;28;20180;-60
2022/01/29 04:08:13;;;;;;;44.57;27.13;;;;;;;;;;5008052;28;20037;-60
2022/01/29 04:10:39;;;;;;;44.23;25.00;;;;;;;;;;5009449;28;20052;-59
2022/01/29 04:13:08;;;;;;;43.73;25.33;;;;;;;;;;5025267;28;20044;-59
2022/01/29 04:15:34;;;;;;;45.27;26.33;;;;;;;;;;5010893;28;20054;-59
2022/01/29 04:18:00;;;;;;;52.33;27.73;;;;;;;;;;5011407;28;20373;-60
2022/01/29 04:20:32;;;;;;;50.63;26.47;;;;;;;;;;4996814;28;20053;-60
2022/01/29 04:22:58;;;;;;;51.77;29.27;;;;;;;;;;4991442;28;20035;-60
2022/01/29 04:25:25;;;;;;;51.93;29.30;;;;;;;;;;4994793;28;20069;-59
2022/01/29 04:27:51;;;;;;;51.33;27.87;;;;;;;;;;5010571;28;20444;-60
2022/01/29 04:30:28;;;;;;;53.17;29.60;;;;;;;;;;5008251;28;20918;-60
2022/01/29 04:32:59;;;;;;;51.77;30.23;;;;;;;;;;5007915;28;20546;-59
2022/01/29 04:35:25;;;;;;;54.90;31.13;;;;;;;;;;5009099;28;20503;-59
2022/01/29 04:38:25;;;;;;;56.93;32.70;;;;;;;;;;5011872;28;20100;-60
2022/01/29 04:40:51;;;;;;;63.30;34.33;;;;;;;;;;4980840;28;20043;-60
2022/01/29 04:43:17;;;;;;;57.53;34.33;;;;;;;;;;4977137;28;20050;-60
2022/01/29 04:45:43;;;;;;;55.60;34.00;;;;;;;;;;4987601;28;20042;-60
2022/01/29 04:48:09;;;;;;;66.93;36.43;;;;;;;;;;5001561;28;20045;-60
2022/01/29 04:50:44;;;;;;;65.40;35.43;;;;;;;;;;5011230;28;20046;-60
2022/01/29 04:53:10;;;;;;;68.40;37.83;;;;;;;;;;5009432;28;20527;-60
2022/01/29 04:55:37;;;;;;;66.23;37.30;;;;;;;;;;5009202;28;20046;-60
2022/01/29 04:58:05;;;;;;;66.97;37.37;;;;;;;;;;5009029;28;20078;-59
2022/01/29 05:00:32;;;;;;;71.03;38.17;;;;;;;;;;5010020;28;20443;-60
2022/01/29 05:03:09;;;;;;;59.63;34.27;;;;;;;;;;5000737;28;20038;-60
2022/01/29 05:05:35;;;;;;;66.07;36.97;;;;;;;;;;5009614;28;20133;-60
2022/01/29 05:08:01;;;;;;;69.43;37.63;;;;;;;;;;5008756;28;20050;-60
2022/01/29 05:10:27;;;;;;;64.93;35.17;;;;;;;;;;5008208;28;20076;-58
2022/01/29 05:12:59;;;;;;;72.30;37.97;;;;;;;;;;5008678;28;20045;-59
2022/01/29 05:28:52;;;;;;;70.45;37.10;;;;;;;;;;5007722;28;20551;-60
2022/01/29 05:31:18;;;;;;;71.60;37.57;;;;;;;;;;5006993;28;20064;-60
2022/01/29 05:33:45;;;;;;;63.60;36.50;;;;;;;;;;5009511;28;20026;-59
2022/01/29 05:36:11;;;;;;;65.40;37.37;;;;;;;;;;5007473;28;20065;-60
2022/01/29 05:38:37;;;;;;;66.70;38.63;;;;;;;;;;5007524;28;20073;-60
2022/01/29 05:41:03;;;;;;;64.20;36.83;;;;;;;;;;5003267;28;20034;-60
2022/01/29 05:43:29;;;;;;;65.37;38.90;;;;;;;;;;5007047;28;20080;-59
2022/01/29 05:45:55;;;;;;;71.57;39.10;;;;;;;;;;5006932;28;20053;-60
2022/01/29 05:48:21;;;;;;;74.00;41.40;;;;;;;;;;5010208;28;20034;-60
2022/01/29 05:50:47;;;;;;;77.83;41.50;;;;;;;;;;5003460;28;20038;-59
2022/01/29 05:53:13;;;;;;;74.73;41.97;;;;;;;;;;5030840;28;20035;-59
2022/01/29 05:55:39;;;;;;;77.27;41.73;;;;;;;;;;5005417;28;20099;-60
2022/01/29 05:58:05;;;;;;;70.77;40.87;;;;;;;;;;5000903;28;20146;-60
2022/01/29 06:00:32;;;;;;;73.60;40.73;;;;;;;;;;4990152;28;20143;-59
2022/01/29 06:02:58;;;;;;;71.10;41.40;;;;;;;;;;4985073;28;20116;-59
2022/01/29 06:05:25;;;;;;;70.67;41.23;;;;;;;;;;5006450;28;20113;-59
2022/01/29 06:07:51;;;;;;;72.97;41.37;;;;;;;;;;5021681;28;20136;-60
2022/01/29 06:10:17;;;;;;;73.73;39.47;;;;;;;;;;5008288;28;20511;-60
2022/01/29 06:12:43;;;;;;;76.00;41.37;;;;;;;;;;5007272;28;20073;-60
2022/01/29 06:15:11;;;;;;;67.87;40.17;;;;;;;;;;5006270;28;20030;-59
2022/01/29 06:17:39;;;;;;;68.97;41.57;;;;;;;;;;5006436;28;20045;-60
2022/01/29 06:20:06;;;;;;;72.13;41.73;;;;;;;;;;5006269;28;20039;-60
2022/01/29 06:22:32;;;;;;;72.13;42.23;;;;;;;;;;5009752;28;20095;-59
2022/01/29 06:24:59;;;;;;;67.80;42.20;;;;;;;;;;5005700;28;20066;-60
2022/01/29 06:27:25;;;;;;;71.30;40.53;;;;;;;;;;5004705;28;20037;-60
2022/01/29 06:29:51;;;;;;;69.47;40.93;;;;;;;;;;5008212;28;20468;-60
2022/01/29 06:32:17;;;;;;;72.13;41.63;;;;;;;;;;4997771;28;20030;-59
2022/01/29 06:34:44;;;;;;;73.77;42.13;;;;;;;;;;5007434;28;20543;-59
2022/01/29 06:37:10;;;;;;;76.23;41.43;;;;;;;;;;5005199;28;20062;-59
2022/01/29 06:39:36;;;;;;;71.67;41.00;;;;;;;;;;5006802;28;20038;-59
2022/01/29 06:42:02;;;;;;;72.80;41.53;;;;;;;;;;4987594;28;20038;-59
2022/01/29 06:44:28;;;;;;;75.47;40.37;;;;;;;;;;4996082;28;20038;-60
2022/01/29 06:46:54;;;;;;;72.33;41.90;;;;;;;;;;4991755;28;20049;-59
2022/01/29 06:49:20;;;;;;;74.80;41.63;;;;;;;;;;4987034;28;20038;-60
2022/01/29 06:51:46;;;;;;;69.43;41.47;;;;;;;;;;4992889;28;20048;-60
2022/01/29 06:54:12;;;;;;;73.43;42.17;;;;;;;;;;5002575;28;20103;-60
2022/01/29 06:56:38;;;;;;;70.57;40.83;;;;;;;;;;5003684;28;20065;-60
2022/01/29 06:59:06;;;;;;;69.67;40.20;;;;;;;;;;5031871;28;20038;-60
2022/01/29 07:01:32;;;;;;;71.57;40.70;;;;;;;;;;5002863;28;20073;-60
2022/01/29 07:03:58;;;;;;;73.47;40.90;;;;;;;;;;4994339;28;20074;-61
2022/01/29 07:06:24;;;;;;;72.40;40.80;;;;;;;;;;4999919;28;20058;-59
2022/01/29 07:08:50;;;;;;;74.33;42.03;;;;;;;;;;4986518;28;20049;-60
2022/01/29 07:11:20;;;;;;;68.53;41.17;;;;;;;;;;4989380;28;20073;-60
2022/01/29 07:13:46;;;;;;;69.23;38.93;;;;;;;;;;5002131;28;20065;-59
2022/01/29 07:16:12;;;;;;;71.03;41.23;;;;;;;;;;5001956;28;21338;-59
2022/01/29 07:18:38;;;;;;;70.17;40.40;;;;;;;;;;5005042;28;20061;-60
2022/01/29 07:21:04;;;;;;;74.60;41.20;;;;;;;;;;4996018;28;20038;-60
2022/01/29 07:23:30;;;;;;;67.20;38.07;;;;;;;;;;4984489;28;20510;-60
2022/01/29 07:25:56;;;;;;;69.20;39.37;;;;;;;;;;4990824;28;20041;-60
2022/01/29 07:28:22;;;;;;;73.93;38.23;;;;;;;;;;4985417;28;20045;-60
2022/01/29 07:30:48;;;;;;;68.53;37.97;;;;;;;;;;4980725;28;20503;-59
2022/01/29 07:33:14;;;;;;;66.03;37.40;;;;;;;;;;4990813;28;20039;-59
2022/01/29 07:35:40;;;;;;;71.93;38.33;;;;;;;;;;4989748;28;20101;-59
2022/01/29 07:38:06;;;;;;;63.90;37.03;;;;;;;;;;4983409;28;20035;-59
2022/01/29 07:40:32;;;;;;;69.03;37.20;;;;;;;;;;4985237;28;20043;-59
2022/01/29 07:42:58;;;;;;;66.83;37.60;;;;;;;;;;4988781;28;20384;-59
2022/01/29 07:45:24;;;;;;;64.57;35.13;;;;;;;;;;4988506;28;20053;-58
2022/01/29 07:47:51;;;;;;;60.37;33.67;;;;;;;;;;5017278;28;20039;-60
2022/01/29 07:50:17;;;;;;;56.50;33.60;;;;;;;;;;4997339;28;20066;-60
2022/01/29 07:52:43;;;;;;;57.63;31.37;;;;;;;;;;4987398;28;20492;-60
2022/01/29 07:55:09;;;;;;;55.10;32.27;;;;;;;;;;4994948;28;20089;-60
2022/01/29 07:57:36;;;;;;;58.63;32.40;;;;;;;;;;4992252;28;20518;-60
2022/01/29 08:00:02;;;;;;;56.37;32.17;;;;;;;;;;4986248;28;20100;-61
2022/01/29 08:02:28;;;;;;;53.70;30.73;;;;;;;;;;4987711;28;20038;-60
2022/01/29 08:04:54;;;;;;;56.87;31.03;;;;;;;;;;4989492;28;20408;-59
2022/01/29 08:07:20;;;;;;;58.30;31.17;;;;;;;;;;5015628;28;20037;-60
2022/01/29 08:09:46;;;;;;;50.30;30.37;;;;;;;;;;5009931;28;20042;-60
2022/01/29 08:12:12;;;;;;;53.37;31.47;;;;;;;;;;5006811;28;20495;-59
2022/01/29 08:14:38;;;;;;;55.33;30.77;;;;;;;;;;5003125;28;20044;-60
2022/01/29 08:17:04;;;;;;;57.37;32.13;;;;;;;;;;4985157;28;20122;-60
2022/01/29 08:19:30;;;;;;;60.20;32.53;;;;;;;;;;5001553;28;20402;-60
2022/01/29 08:21:56;;;;;;;52.33;29.27;;;;;;;;;;5008296;28;20471;-60
2022/01/29 08:24:22;;;;;;;52.80;30.03;;;;;;;;;;4997413;28;20076;-56
2022/01/29 08:26:48;;;;;;;55.43;30.63;;;;;;;;;;5007910;28;20089;-60
2022/01/29 08:29:14;;;;;;;56.30;30.80;;;;;;;;;;5005637;28;20038;-60
2022/01/29 08:31:40;;;;;;;51.07;31.13;;;;;;;;;;4991366;28;20046;-60
2022/01/29 08:34:06;;;;;;;61.37;31.53;;;;;;;;;;4985674;28;20547;-60
2022/01/29 08:36:33;;;;;;;56.47;30.77;;;;;;;;;;4987916;28;20539;-60
2022/01/29 08:38:59;;;;;;;56.97;31.80;;;;;;;;;;5003269;28;20053;-60
2022/01/29 08:41:25;;;;;;;62.57;32.13;;;;;;;;;;5004039;28;20041;-60
2022/01/29 08:43:51;;;;;;;57.00;30.57;;;;;;;;;;5015275;28;20038;-60
2022/01/29 08:46:17;;;;;;;60.37;32.73;;;;;;;;;;4988900;28;20062;-60
2022/01/29 08:48:43;;;;;;;54.33;31.53;;;;;;;;;;4987743;28;20089;-60
2022/01/29 08:51:09;;;;;;;58.97;32.60;;;;;;;;;;4987266;28;20073;-61
2022/01/29 08:53:35;;;;;;;58.63;30.60;;;;;;;;;;4992386;28;20508;-60
2022/01/29 08:56:01;;;;;;;61.57;32.43;;;;;;;;;;4984996;28;20500;-60
2022/01/29 08:58:27;;;;;;;55.17;30.67;;;;;;;;;;4995393;28;20038;-58
2022/01/29 09:00:54;;;;;;;59.83;31.27;;;;;;;;;;4990251;28;20509;-59
2022/01/29 09:03:20;;;;;;;58.07;31.57;;;;;;;;;;4995109;28;20185;-60
2022/01/29 09:05:46;;;;;;;61.77;31.80;;;;;;;;;;4985729;28;20035;-60
2022/01/29 09:08:13;;;;;;;53.97;30.00;;;;;;;;;;4990133;28;20057;-60
2022/01/29 09:10:39;;;;;;;50.37;29.63;;;;;;;;;;4996337;28;20062;-61
2022/01/29 09:13:05;;;;;;;54.33;31.67;;;;;;;;;;4998951;28;20074;-61
2022/01/29 09:15:32;;;;;;;55.80;31.60;;;;;;;;;;5007514;28;20144;-60
2022/01/29 09:17:58;;;;;;;55.53;29.80;;;;;;;;;;5001584;28;20506;-60
2022/01/29 09:20:24;;;;;;;61.80;30.73;;;;;;;;;;5006603;28;20050;-59
2022/01/29 09:22:50;;;;;;;52.53;28.17;;;;;;;;;;5008229;28;20040;-59
2022/01/29 09:25:16;;;;;;;57.40;31.63;;;;;;;;;;5005265;28;20483;-59
2022/01/29 09:27:42;;;;;;;52.93;29.90;;;;;;;;;;4996338;28;20038;-60
2022/01/29 09:30:08;;;;;;;55.97;30.97;;;;;;;;;;4997017;28;20511;-60
2022/01/29 09:32:35;;;;;;;57.47;31.30;;;;;;;;;;5004799;28;20041;-60
2022/01/29 09:35:01;;;;;;;64.00;31.40;;;;;;;;;;5007213;28;20129;-60
2022/01/29 09:37:27;;;;;;;58.73;31.20;;;;;;;;;;4999877;28;20063;-59
2022/01/29 09:39:53;;;;;;;57.17;31.13;;;;;;;;;;5037190;28;20118;-55
2022/01/29 09:42:20;;;;;;;54.70;32.97;;;;;;;;;;5036932;28;20134;-59
2022/01/29 09:44:48;;;;;;;59.23;34.70;;;;;;;;;;5003975;28;20108;-60
2022/01/29 09:47:16;;;;;;;62.20;33.00;;;;;;;;;;5006579;28;20069;-60
2022/01/29 09:49:42;;;;;;;53.27;32.97;;;;;;;;;;5005263;28;20439;-59
2022/01/29 09:52:08;;;;;;;59.93;33.37;;;;;;;;;;5003096;28;20038;-59
2022/01/29 09:54:37;;;;;;;57.90;33.67;;;;;;;;;;4998762;28;20136;-59
2022/01/29 09:57:04;;;;;;;57.60;31.93;;;;;;;;;;5001056;28;20042;-60
2022/01/29 09:59:30;;;;;;;54.03;32.13;;;;;;;;;;5001823;28;20039;-60
2022/01/29 10:01:56;;;;;;;57.57;34.10;;;;;;;;;;4982831;28;20691;-59
2022/01/29 10:04:24;;;;;;;56.23;31.87;;;;;;;;;;4992999;28;20058;-60
2022/01/29 10:07:09;;;;;;;56.27;33.10;;;;;;;;;;4992757;28;20121;-60
2022/01/29 10:09:35;;;;;;;50.35;29.60;;;;;;;;;;4989794;28;20178;-60
2022/01/29 10:12:17;;;;;;;54.53;29.93;;;;;;;;;;4990957;28;20046;-59
2022/01/29 10:14:51;;;;;;;54.70;30.90;;;;;;;;;;4979197;28;20119;-60
2022/01/29 10:17:36;;;;;;;55.47;31.03;;;;;;;;;;4985899;28;20450;-59
2022/01/29 10:20:02;;;;;;;;;;;;;;;;;;5004085;28;20060;-58
2022/01/29 10:22:33;;;;;;;54.43;30.83;;;;;;;;;;5036704;28;19917;-60
2022/01/29 10:24:59;;;;;;;52.13;31.27;;;;;;;;;;5006410;28;20053;-58
2022/01/29 10:27:25;;;;;;;49.47;30.73;;;;;;;;;;4986134;28;20117;-58
2022/01/29 10:30:00;;;;;;;58.70;32.57;;;;;;;;;;4987691;28;20048;-59
2022/01/29 10:32:28;;;;;;;51.90;30.13;;;;;;;;;;4980697;28;20085;-58
2022/01/29 10:34:58;;;;;;;53.40;31.77;;;;;;;;;;5017909;28;20128;-58
2022/01/29 10:37:25;;;;;;;49.53;31.37;;;;;;;;;;5005904;28;20172;-58
2022/01/29 10:39:59;;;;;;;54.70;32.50;;;;;;;;;;5003714;28;20132;-59
2022/01/29 10:42:27;;;;;;;53.70;30.87;;;;;;;;;;5035949;28;20041;-59
2022/01/29 10:44:59;;;;;;;55.60;31.17;;;;;;;;;;4999393;28;20038;-57
2022/01/29 10:47:26;;;;;;;52.80;32.40;;;;;;;;;;4984620;28;20469;-60
2022/01/29 10:50:05;;;;;;;50.67;31.70;;;;;;;;;;4991844;28;20037;-60
2022/01/29 10:52:33;;;;;;;58.63;33.03;;;;;;;;;;4997900;28;20092;-59
2022/01/29 10:55:04;;;;;;;51.73;32.23;;;;;;;;;;5005286;28;20046;-58
2022/01/29 10:57:31;;;;;;;53.47;31.60;;;;;;;;;;5005516;28;20042;-59
2022/01/29 10:59:57;;;;;;;53.50;32.10;;;;;;;;;;5004659;28;20034;-60
2022/01/29 11:02:27;;;;;;;53.07;32.47;;;;;;;;;;4983868;28;20037;-58
2022/01/29 11:04:53;;;;;;;62.37;32.53;;;;;;;;;;4998821;28;20395;-58
2022/01/29 11:07:24;;;;;;;52.80;31.07;;;;;;;;;;4989137;28;20034;-61
2022/01/29 11:09:51;;;;;;;50.53;30.30;;;;;;;;;;4994127;28;20466;-61
2022/01/29 11:12:21;;;;;;;49.03;30.60;;;;;;;;;;4982286;28;20130;-61
2022/01/29 11:14:48;;;;;;;51.07;30.10;;;;;;;;;;5029779;28;20057;-60
2022/01/29 11:17:18;;;;;;;56.80;32.07;;;;;;;;;;5002710;28;20428;-60
2022/01/29 11:19:45;;;;;;;51.90;31.40;;;;;;;;;;5008968;28;20045;-60
2022/01/29 11:22:12;;;;;;;48.57;29.17;;;;;;;;;;5000102;28;20042;-59
2022/01/29 11:24:39;;;;;;;47.03;27.80;;;;;;;;;;5002049;28;20124;-59
2022/01/29 11:27:26;;;;;;;51.80;27.93;;;;;;;;;;5009069;28;20038;-59
2022/01/29 11:30:18;;;;;;;51.33;27.13;;;;;;;;;;5000333;28;20031;-58
2022/01/29 11:32:52;;;;;;;57.33;28.40;;;;;;;;;;4999287;28;20038;-59
2022/01/29 11:35:24;;;;;;;51.75;27.52;;;;;;;;;;5013305;28;20401;-60
2022/01/29 11:37:53;;;;;;;49.40;25.50;;;;;;;;;;4987618;28;20077;-60
2022/01/29 11:40:30;;;;;;;47.13;25.97;;;;;;;;;;4996992;28;20049;-60
2022/01/29 11:43:06;;;;;;;46.30;25.73;;;;;;;;;;5003575;28;20065;-59
2022/01/29 11:45:44;;;;;;;51.30;27.23;;;;;;;;;;5007095;28;20042;-60
2022/01/29 11:48:33;;;;;;;45.70;24.97;;;;;;;;;;5006917;28;20132;-60
2022/01/29 11:51:05;;;;;;;47.87;25.87;;;;;;;;;;5036592;28;20038;-60
2022/01/29 12:03:12;;;;;;;;;;;;;;;;;;4983731;28;20084;-60
2022/01/29 12:05:59;;;;;;;55.53;29.43;;;;;;;;;;5007759;28;19961;-59
2022/01/29 12:08:25;;;;;;;53.80;29.47;;;;;;;;;;5004272;28;20468;-59
2022/01/29 12:10:56;;;;;;;49.13;28.37;;;;;;;;;;4996385;28;20133;-59
2022/01/29 12:13:22;;;;;;;53.40;29.87;;;;;;;;;;4986705;28;20049;-60
2022/01/29 12:15:48;;;;;;;56.47;28.47;;;;;;;;;;5002140;28;20042;-63
2022/01/29 12:18:28;;;;;;;52.10;29.47;;;;;;;;;;4993867;28;20042;-60
2022/01/29 12:20:54;;;;;;;55.83;29.33;;;;;;;;;;4983001;28;20388;-58
2022/01/29 12:23:20;;;;;;;51.90;29.83;;;;;;;;;;5023507;28;20034;-59
2022/01/29 12:25:56;;;;;;;54.80;31.23;;;;;;;;;;5003234;28;20038;-59
2022/01/29 12:28:22;;;;;;;54.60;30.13;;;;;;;;;;5003230;28;20042;-59
2022/01/29 12:30:48;;;;;;;54.60;28.60;;;;;;;;;;5006585;28;20100;-59
2022/01/29 12:33:16;;;;;;;51.30;29.47;;;;;;;;;;5010306;28;20041;-59
2022/01/29 12:35:58;;;;;;;57.70;28.83;;;;;;;;;;5008589;28;20041;-59
2022/01/29 12:38:30;;;;;;;56.57;28.10;;;;;;;;;;5009908;28;20046;-58
2022/01/29 12:40:56;;;;;;;49.27;27.57;;;;;;;;;;5009952;28;20042;-59
2022/01/29 12:43:24;;;;;;;51.20;27.87;;;;;;;;;;5012268;28;20041;-59
2022/01/29 12:49:02;;;;;;;56.03;29.10;;;;;;;;;;5003913;28;20395;-54
2022/01/29 12:51:29;;;;;;;50.23;27.73;;;;;;;;;;5010243;28;20442;-59
2022/01/29 12:53:56;;;;;;;52.83;29.73;;;;;;;;;;5039539;28;20605;-58
2022/01/29 12:56:29;;;;;;;51.60;29.43;;;;;;;;;;5010485;28;20423;-59
2022/01/29 12:58:55;;;;;;;49.93;28.87;;;;;;;;;;5009480;28;20048;-58
2022/01/29 13:01:24;;;;;;;54.10;28.90;;;;;;;;;;5010363;28;20380;-58
2022/01/29 13:03:50;;;;;;;53.67;30.73;;;;;;;;;;4995395;28;20053;-58
2022/01/29 13:06:17;;;;;;;55.83;30.70;;;;;;;;;;5008678;28;20029;-58
2022/01/29 13:08:44;;;;;;;57.13;30.17;;;;;;;;;;5009787;28;20046;-57
2022/01/29 13:11:26;;;;;;;62.33;32.37;;;;;;;;;;5008665;28;20129;-58
2022/01/29 13:13:53;;;;;;;56.73;30.33;;;;;;;;;;5004794;28;20038;-58
2022/01/29 13:16:19;;;;;;;52.53;28.33;;;;;;;;;;5008437;28;20034;-58
2022/01/29 13:18:45;;;;;;;53.03;30.07;;;;;;;;;;5001469;28;20034;-57
2022/01/29 13:21:11;;;;;;;52.97;29.00;;;;;;;;;;4983070;28;20559;-61
2022/01/29 13:23:38;;;;;;;52.93;28.10;;;;;;;;;;4997420;28;20038;-60
2022/01/29 13:26:17;;;;;;;53.87;31.00;;;;;;;;;;5008092;28;20033;-60
2022/01/29 13:28:48;;;;;;;51.00;29.60;;;;;;;;;;5008174;28;20135;-60
2022/01/29 13:31:15;;;;;;;56.57;30.77;;;;;;;;;;5008906;28;20129;-59
2022/01/29 13:33:44;;;;;;;53.60;30.13;;;;;;;;;;5006885;28;20034;-57
2022/01/29 13:36:10;;;;;;;54.07;30.37;;;;;;;;;;5008245;28;20069;-58
2022/01/29 13:38:40;;;;;;;58.93;29.87;;;;;;;;;;5040103;28;20046;-58
2022/01/29 13:41:06;;;;;;;56.33;31.03;;;;;;;;;;5008357;28;20119;-57
2022/01/29 13:43:37;;;;;;;52.85;30.25;;;;;;;;;;5008153;28;20547;-58
2022/01/29 13:46:07;;;;;;;50.60;30.63;;;;;;;;;;5007052;28;20141;-56
2022/01/29 13:48:51;;;;;;;58.50;30.97;;;;;;;;;;5009170;28;20133;-55
2022/01/29 13:51:36;;;;;;;54.27;30.33;;;;;;;;;;5009241;28;20057;-58
2022/01/29 13:54:06;;;;;;;55.37;30.53;;;;;;;;;;5003412;28;20488;-58
2022/01/29 13:56:33;;;;;;;55.23;31.87;;;;;;;;;;5007406;28;20065;-57
2022/01/29 13:59:06;;;;;;;50.57;29.77;;;;;;;;;;5009234;28;20036;-56
2022/01/29 14:01:46;;;;;;;51.17;30.05;;;;;;;;;;5001680;28;20053;-56
2022/01/29 14:04:33;;;;;;;55.38;33.72;;;;;;;;;;4994584;28;20042;-58
2022/01/29 14:07:00;;;;;;;61.53;33.10;;;;;;;;;;4995579;28;20042;-60
2022/01/29 14:11:58;;;;;;;59.97;30.92;;;;;;;;;;4995916;28;20156;-59
2022/01/29 14:14:35;;;;;;;58.65;32.97;;;;;;;;;;5004509;28;20054;-57
2022/01/29 14:17:02;;;;;;;59.15;33.92;;;;;;;;;;5004272;28;20045;-59
2022/01/29 14:19:30;;;;;;;58.03;34.63;;;;;;;;;;5004391;28;20499;-59
2022/01/29 14:21:57;;;;;;;59.60;35.07;;;;;;;;;;5002645;28;20129;-58
2022/01/29 14:24:23;;;;;;;57.13;34.93;;;;;;;;;;5002673;28;20034;-56
2022/01/29 14:26:49;;;;;;;61.70;36.27;;;;;;;;;;5004548;28;20044;-59
2022/01/29 14:29:15;;;;;;;63.55;34.97;;;;;;;;;;5006183;28;20042;-60
2022/01/29 14:31:42;;;;;;;63.45;37.55;;;;;;;;;;5001706;28;20033;-60
2022/01/29 14:34:08;;;;;;;60.40;36.42;;;;;;;;;;5001184;28;20493;-59
2022/01/29 14:36:34;;;;;;;62.08;36.95;;;;;;;;;;5036863;28;20135;-59
2022/01/29 14:39:01;;;;;;;61.08;35.45;;;;;;;;;;5001366;28;20050;-59
2022/01/29 14:41:27;;;;;;;65.68;35.42;;;;;;;;;;5001340;28;20046;-59
2022/01/29 14:43:53;;;;;;;56.80;35.45;;;;;;;;;;5036059;28;20117;-60
2022/01/29 14:46:19;;;;;;;67.57;35.83;;;;;;;;;;5002402;28;20049;-60
2022/01/29 14:48:45;;;;;;;57.80;34.85;;;;;;;;;;5005158;28;20123;-59
2022/01/29 14:51:13;;;;;;;57.05;35.25;;;;;;;;;;4995417;28;20043;-59